sensor_id;sensor_type;location;lat;lon;timestamp;P1;durP1;ratioP1;P2;durP2;ratioP2
50355;SDS011;36264;51.296;-0.602;2022-07-04T00:02:13;5.72;;;2.58;;
50355;SDS011;36264;51.296;-0.602;2022-07-04T00:04:38;5.72;;;2.20;;
50355;SDS011;36264;51.296;-0.602;2022-07-04T00:07:03;3.03;;;1.83;;
50355;SDS011;36264;51.296;-0.602;2022-07-04T00:09:29;4.10;;;2.45;;
50355;SDS011;36264;51.296;-0.602;2022-07-04T00:11:54;5.20;;;2.80;;
50355;SDS011;36264;51.296;-0.602;2022-07-04T00:14:20;5.35;;;2.40;;
50355;SDS011;36264;51.296;-0.602;2022-07-04T00:16:45;5.05;;;2.67;;
50355;SDS011;36264;51.296;-0.602;2022-07-04T00:19:10;3.35;;;2.15;;
50355;SDS011;36264;51.296;-0.602;2022-07-04T00:21:36;4.20;;;2.50;;
50355;SDS011;36264;51.296;-0.602;2022-07-04T00:24:01;4.15;;;1.95;;
50355;SDS011;36264;51.296;-0.602;2022-07-04T00:26:27;4.88;;;2.38;;
50355;SDS011;36264;51.296;-0.602;2022-07-04T00:28:52;4.40;;;2.20;;
50355;SDS011;36264;51.296;-0.602;2022-07-04T00:31:18;5.60;;;2.63;;
50355;SDS011;36264;51.296;-0.602;2022-07-04T00:33:43;4.63;;;2.58;;
50355;SDS011;36264;51.296;-0.602;2022-07-04T00:36:09;4.22;;;2.63;;
50355;SDS011;36264;51.296;-0.602;2022-07-04T00:38:34;6.68;;;2.83;;
50355;SDS011;36264;51.296;-0.602;2022-07-04T00:40:59;4.95;;;2.75;;
50355;SDS011;36264;51.296;-0.602;2022-07-04T00:43:26;3.97;;;2.22;;
50355;SDS011;36264;51.296;-0.602;2022-07-04T00:45:52;4.25;;;2.53;;
50355;SDS011;36264;51.296;-0.602;2022-07-04T00:48:18;4.65;;;2.80;;
50355;SDS011;36264;51.296;-0.602;2022-07-04T00:50:47;4.55;;;2.40;;
50355;SDS011;36264;51.296;-0.602;2022-07-04T00:53:20;5.72;;;2.85;;
50355;SDS011;36264;51.296;-0.602;2022-07-04T00:55:47;7.00;;;3.15;;
50355;SDS011;36264;51.296;-0.602;2022-07-04T00:58:14;4.53;;;2.80;;
50355;SDS011;36264;51.296;-0.602;2022-07-04T01:00:40;5.53;;;3.30;;
50355;SDS011;36264;51.296;-0.602;2022-07-04T01:03:06;3.92;;;2.20;;
50355;SDS011;36264;51.296;-0.602;2022-07-04T01:05:31;4.30;;;2.75;;
50355;SDS011;36264;51.296;-0.602;2022-07-04T01:07:56;4.88;;;2.90;;
50355;SDS011;36264;51.296;-0.602;2022-07-04T01:10:23;4.07;;;2.30;;
50355;SDS011;36264;51.296;-0.602;2022-07-04T01:12:48;4.40;;;2.47;;
50355;SDS011;36264;51.296;-0.602;2022-07-04T01:15:14;4.30;;;2.40;;
50355;SDS011;36264;51.296;-0.602;2022-07-04T01:17:39;5.05;;;2.55;;
50355;SDS011;36264;51.296;-0.602;2022-07-04T01:20:05;6.45;;;3.03;;
50355;SDS011;36264;51.296;-0.602;2022-07-04T01:22:31;3.88;;;2.15;;
50355;SDS011;36264;51.296;-0.602;2022-07-04T01:24:56;4.05;;;2.55;;
50355;SDS011;36264;51.296;-0.602;2022-07-04T01:27:22;7.35;;;3.97;;
50355;SDS011;36264;51.296;-0.602;2022-07-04T01:29:47;4.30;;;2.67;;
50355;SDS011;36264;51.296;-0.602;2022-07-04T01:32:12;4.15;;;2.50;;
50355;SDS011;36264;51.296;-0.602;2022-07-04T01:34:38;5.38;;;3.08;;
50355;SDS011;36264;51.296;-0.602;2022-07-04T01:37:04;6.07;;;2.67;;
50355;SDS011;36264;51.296;-0.602;2022-07-04T01:39:29;6.50;;;3.35;;
50355;SDS011;36264;51.296;-0.602;2022-07-04T01:41:55;5.82;;;3.35;;
50355;SDS011;36264;51.296;-0.602;2022-07-04T01:44:21;5.15;;;3.25;;
50355;SDS011;36264;51.296;-0.602;2022-07-04T01:46:46;4.50;;;2.75;;
50355;SDS011;36264;51.296;-0.602;2022-07-04T01:49:12;5.05;;;2.88;;
50355;SDS011;36264;51.296;-0.602;2022-07-04T01:51:47;6.25;;;3.13;;
50355;SDS011;36264;51.296;-0.602;2022-07-04T01:54:13;4.70;;;2.80;;
50355;SDS011;36264;51.296;-0.602;2022-07-04T01:56:39;5.60;;;2.92;;
50355;SDS011;36264;51.296;-0.602;2022-07-04T01:59:05;5.00;;;3.05;;
50355;SDS011;36264;51.296;-0.602;2022-07-04T02:01:30;4.43;;;2.72;;
50355;SDS011;36264;51.296;-0.602;2022-07-04T02:03:59;4.40;;;2.70;;
50355;SDS011;36264;51.296;-0.602;2022-07-04T02:06:26;4.68;;;2.72;;
50355;SDS011;36264;51.296;-0.602;2022-07-04T02:08:52;5.15;;;2.97;;
50355;SDS011;36264;51.296;-0.602;2022-07-04T02:11:37;3.95;;;2.30;;
50355;SDS011;36264;51.296;-0.602;2022-07-04T02:14:21;5.00;;;2.70;;
50355;SDS011;36264;51.296;-0.602;2022-07-04T02:16:46;5.13;;;2.40;;
50355;SDS011;36264;51.296;-0.602;2022-07-04T02:19:12;5.32;;;2.45;;
50355;SDS011;36264;51.296;-0.602;2022-07-04T02:21:37;4.55;;;2.78;;
50355;SDS011;36264;51.296;-0.602;2022-07-04T02:24:02;4.50;;;2.38;;
50355;SDS011;36264;51.296;-0.602;2022-07-04T02:26:28;4.97;;;2.65;;
50355;SDS011;36264;51.296;-0.602;2022-07-04T02:28:54;5.18;;;2.97;;
50355;SDS011;36264;51.296;-0.602;2022-07-04T02:31:19;4.38;;;2.63;;
50355;SDS011;36264;51.296;-0.602;2022-07-04T02:33:44;6.05;;;2.67;;
50355;SDS011;36264;51.296;-0.602;2022-07-04T02:36:10;6.32;;;2.60;;
50355;SDS011;36264;51.296;-0.602;2022-07-04T02:38:35;5.68;;;2.90;;
50355;SDS011;36264;51.296;-0.602;2022-07-04T02:41:00;6.85;;;2.92;;
50355;SDS011;36264;51.296;-0.602;2022-07-04T02:43:26;4.97;;;2.47;;
50355;SDS011;36264;51.296;-0.602;2022-07-04T02:45:51;4.75;;;2.90;;
50355;SDS011;36264;51.296;-0.602;2022-07-04T02:48:16;6.80;;;2.60;;
50355;SDS011;36264;51.296;-0.602;2022-07-04T02:50:42;7.80;;;3.53;;
50355;SDS011;36264;51.296;-0.602;2022-07-04T02:53:07;8.27;;;3.38;;
50355;SDS011;36264;51.296;-0.602;2022-07-04T02:55:32;8.85;;;3.55;;
50355;SDS011;36264;51.296;-0.602;2022-07-04T02:57:58;8.20;;;3.65;;
50355;SDS011;36264;51.296;-0.602;2022-07-04T03:00:23;7.90;;;3.78;;
50355;SDS011;36264;51.296;-0.602;2022-07-04T03:02:49;7.22;;;3.45;;
50355;SDS011;36264;51.296;-0.602;2022-07-04T03:05:14;10.05;;;3.80;;
50355;SDS011;36264;51.296;-0.602;2022-07-04T03:07:39;10.43;;;3.90;;
50355;SDS011;36264;51.296;-0.602;2022-07-04T03:10:05;7.70;;;3.97;;
50355;SDS011;36264;51.296;-0.602;2022-07-04T03:12:31;10.65;;;3.95;;
50355;SDS011;36264;51.296;-0.602;2022-07-04T03:14:56;6.43;;;3.30;;
50355;SDS011;36264;51.296;-0.602;2022-07-04T03:17:24;6.55;;;3.90;;
50355;SDS011;36264;51.296;-0.602;2022-07-04T03:19:53;8.07;;;3.75;;
50355;SDS011;36264;51.296;-0.602;2022-07-04T03:22:18;8.35;;;3.92;;
50355;SDS011;36264;51.296;-0.602;2022-07-04T03:24:43;7.00;;;3.67;;
50355;SDS011;36264;51.296;-0.602;2022-07-04T03:27:09;10.00;;;3.75;;
50355;SDS011;36264;51.296;-0.602;2022-07-04T03:29:34;9.75;;;4.20;;
50355;SDS011;36264;51.296;-0.602;2022-07-04T03:32:00;8.55;;;4.03;;
50355;SDS011;36264;51.296;-0.602;2022-07-04T03:34:25;10.02;;;4.35;;
50355;SDS011;36264;51.296;-0.602;2022-07-04T03:36:51;7.88;;;3.55;;
50355;SDS011;36264;51.296;-0.602;2022-07-04T03:39:16;10.82;;;4.32;;
50355;SDS011;36264;51.296;-0.602;2022-07-04T03:41:42;9.95;;;4.43;;
50355;SDS011;36264;51.296;-0.602;2022-07-04T03:44:07;7.80;;;3.78;;
50355;SDS011;36264;51.296;-0.602;2022-07-04T03:46:32;9.18;;;4.65;;
50355;SDS011;36264;51.296;-0.602;2022-07-04T03:48:58;9.77;;;4.10;;
50355;SDS011;36264;51.296;-0.602;2022-07-04T03:51:24;7.50;;;3.58;;
50355;SDS011;36264;51.296;-0.602;2022-07-04T03:53:50;10.50;;;4.05;;
50355;SDS011;36264;51.296;-0.602;2022-07-04T03:56:15;9.40;;;3.80;;
50355;SDS011;36264;51.296;-0.602;2022-07-04T03:58:41;9.40;;;4.15;;
50355;SDS011;36264;51.296;-0.602;2022-07-04T04:01:07;4.88;;;3.00;;
50355;SDS011;36264;51.296;-0.602;2022-07-04T04:03:35;7.38;;;3.63;;
50355;SDS011;36264;51.296;-0.602;2022-07-04T04:06:19;8.95;;;3.80;;
50355;SDS011;36264;51.296;-0.602;2022-07-04T04:08:45;7.30;;;3.60;;
50355;SDS011;36264;51.296;-0.602;2022-07-04T04:11:11;5.78;;;2.97;;
50355;SDS011;36264;51.296;-0.602;2022-07-04T04:13:36;8.05;;;4.22;;
50355;SDS011;36264;51.296;-0.602;2022-07-04T04:16:01;8.75;;;3.08;;
50355;SDS011;36264;51.296;-0.602;2022-07-04T04:18:27;8.77;;;3.88;;
50355;SDS011;36264;51.296;-0.602;2022-07-04T04:20:52;10.43;;;3.33;;
50355;SDS011;36264;51.296;-0.602;2022-07-04T04:23:17;8.27;;;3.60;;
50355;SDS011;36264;51.296;-0.602;2022-07-04T04:25:43;7.32;;;3.50;;
50355;SDS011;36264;51.296;-0.602;2022-07-04T04:28:08;7.57;;;3.53;;
50355;SDS011;36264;51.296;-0.602;2022-07-04T04:30:34;8.18;;;3.42;;
50355;SDS011;36264;51.296;-0.602;2022-07-04T04:32:59;7.28;;;3.45;;
50355;SDS011;36264;51.296;-0.602;2022-07-04T04:35:25;5.45;;;2.80;;
50355;SDS011;36264;51.296;-0.602;2022-07-04T04:37:50;7.28;;;3.53;;
50355;SDS011;36264;51.296;-0.602;2022-07-04T04:40:16;6.03;;;2.97;;
50355;SDS011;36264;51.296;-0.602;2022-07-04T04:42:42;7.22;;;2.97;;
50355;SDS011;36264;51.296;-0.602;2022-07-04T04:45:07;7.90;;;3.28;;
50355;SDS011;36264;51.296;-0.602;2022-07-04T04:47:33;6.22;;;2.55;;
50355;SDS011;36264;51.296;-0.602;2022-07-04T04:49:58;7.28;;;3.50;;
50355;SDS011;36264;51.296;-0.602;2022-07-04T04:52:25;6.22;;;3.08;;
50355;SDS011;36264;51.296;-0.602;2022-07-04T04:54:50;8.38;;;3.25;;
50355;SDS011;36264;51.296;-0.602;2022-07-04T04:57:16;6.55;;;3.10;;
50355;SDS011;36264;51.296;-0.602;2022-07-04T04:59:41;6.15;;;2.67;;
50355;SDS011;36264;51.296;-0.602;2022-07-04T05:02:06;7.20;;;2.88;;
50355;SDS011;36264;51.296;-0.602;2022-07-04T05:04:32;5.53;;;2.70;;
50355;SDS011;36264;51.296;-0.602;2022-07-04T05:06:57;4.75;;;2.92;;
50355;SDS011;36264;51.296;-0.602;2022-07-04T05:09:22;6.40;;;2.80;;
50355;SDS011;36264;51.296;-0.602;2022-07-04T05:11:48;4.88;;;2.75;;
50355;SDS011;36264;51.296;-0.602;2022-07-04T05:14:14;6.22;;;2.58;;
50355;SDS011;36264;51.296;-0.602;2022-07-04T05:16:39;4.65;;;2.63;;
50355;SDS011;36264;51.296;-0.602;2022-07-04T05:19:05;4.55;;;2.30;;
50355;SDS011;36264;51.296;-0.602;2022-07-04T05:21:30;4.63;;;2.65;;
50355;SDS011;36264;51.296;-0.602;2022-07-04T05:23:56;3.92;;;2.03;;
50355;SDS011;36264;51.296;-0.602;2022-07-04T05:26:21;4.30;;;2.50;;
50355;SDS011;36264;51.296;-0.602;2022-07-04T05:28:47;4.70;;;1.98;;
50355;SDS011;36264;51.296;-0.602;2022-07-04T05:31:13;4.70;;;2.53;;
50355;SDS011;36264;51.296;-0.602;2022-07-04T05:33:38;5.88;;;2.38;;
50355;SDS011;36264;51.296;-0.602;2022-07-04T05:36:04;4.45;;;2.00;;
50355;SDS011;36264;51.296;-0.602;2022-07-04T05:38:29;5.22;;;2.60;;
50355;SDS011;36264;51.296;-0.602;2022-07-04T05:40:55;6.45;;;2.83;;
50355;SDS011;36264;51.296;-0.602;2022-07-04T05:43:20;4.45;;;2.25;;
50355;SDS011;36264;51.296;-0.602;2022-07-04T05:45:50;5.75;;;2.33;;
50355;SDS011;36264;51.296;-0.602;2022-07-04T05:48:16;4.95;;;2.28;;
50355;SDS011;36264;51.296;-0.602;2022-07-04T05:50:41;3.35;;;1.80;;
50355;SDS011;36264;51.296;-0.602;2022-07-04T05:53:07;6.10;;;2.65;;
50355;SDS011;36264;51.296;-0.602;2022-07-04T05:55:32;5.55;;;2.58;;
50355;SDS011;36264;51.296;-0.602;2022-07-04T05:57:59;5.80;;;2.45;;
50355;SDS011;36264;51.296;-0.602;2022-07-04T06:00:25;6.65;;;3.42;;
50355;SDS011;36264;51.296;-0.602;2022-07-04T06:02:50;5.60;;;2.05;;
50355;SDS011;36264;51.296;-0.602;2022-07-04T06:05:16;5.80;;;2.60;;
50355;SDS011;36264;51.296;-0.602;2022-07-04T06:07:41;7.57;;;2.60;;
50355;SDS011;36264;51.296;-0.602;2022-07-04T06:10:07;4.55;;;2.08;;
50355;SDS011;36264;51.296;-0.602;2022-07-04T06:12:33;4.82;;;2.63;;
50355;SDS011;36264;51.296;-0.602;2022-07-04T06:14:59;3.22;;;1.95;;
50355;SDS011;36264;51.296;-0.602;2022-07-04T06:17:24;4.32;;;1.90;;
50355;SDS011;36264;51.296;-0.602;2022-07-04T06:19:50;4.60;;;1.98;;
50355;SDS011;36264;51.296;-0.602;2022-07-04T06:22:15;3.88;;;1.70;;
50355;SDS011;36264;51.296;-0.602;2022-07-04T06:24:41;3.35;;;1.88;;
50355;SDS011;36264;51.296;-0.602;2022-07-04T06:27:06;2.70;;;1.70;;
50355;SDS011;36264;51.296;-0.602;2022-07-04T06:29:32;2.38;;;1.45;;
50355;SDS011;36264;51.296;-0.602;2022-07-04T06:31:57;2.70;;;1.50;;
50355;SDS011;36264;51.296;-0.602;2022-07-04T06:34:22;3.33;;;1.60;;
50355;SDS011;36264;51.296;-0.602;2022-07-04T06:37:06;3.33;;;1.38;;
50355;SDS011;36264;51.296;-0.602;2022-07-04T06:39:32;2.33;;;1.40;;
50355;SDS011;36264;51.296;-0.602;2022-07-04T06:41:57;2.22;;;1.33;;
50355;SDS011;36264;51.296;-0.602;2022-07-04T06:44:22;2.28;;;1.65;;
50355;SDS011;36264;51.296;-0.602;2022-07-04T06:46:48;3.08;;;1.40;;
50355;SDS011;36264;51.296;-0.602;2022-07-04T06:49:13;2.40;;;1.50;;
50355;SDS011;36264;51.296;-0.602;2022-07-04T06:51:39;2.47;;;1.52;;
50355;SDS011;36264;51.296;-0.602;2022-07-04T06:54:04;2.20;;;1.52;;
50355;SDS011;36264;51.296;-0.602;2022-07-04T06:56:30;3.10;;;1.48;;
50355;SDS011;36264;51.296;-0.602;2022-07-04T06:58:56;2.00;;;1.60;;
50355;SDS011;36264;51.296;-0.602;2022-07-04T07:01:21;1.90;;;1.30;;
50355;SDS011;36264;51.296;-0.602;2022-07-04T07:03:47;1.98;;;1.38;;
50355;SDS011;36264;51.296;-0.602;2022-07-04T07:06:12;2.55;;;1.38;;
50355;SDS011;36264;51.296;-0.602;2022-07-04T07:08:38;2.35;;;1.27;;
50355;SDS011;36264;51.296;-0.602;2022-07-04T07:11:03;2.88;;;1.85;;
50355;SDS011;36264;51.296;-0.602;2022-07-04T07:13:42;3.92;;;1.38;;
50355;SDS011;36264;51.296;-0.602;2022-07-04T07:16:09;3.25;;;1.40;;
50355;SDS011;36264;51.296;-0.602;2022-07-04T07:18:35;2.65;;;1.50;;
50355;SDS011;36264;51.296;-0.602;2022-07-04T07:21:01;2.45;;;1.33;;
50355;SDS011;36264;51.296;-0.602;2022-07-04T07:23:26;1.58;;;1.10;;
50355;SDS011;36264;51.296;-0.602;2022-07-04T07:25:52;3.80;;;1.20;;
50355;SDS011;36264;51.296;-0.602;2022-07-04T07:28:17;1.90;;;1.30;;
50355;SDS011;36264;51.296;-0.602;2022-07-04T07:30:43;1.77;;;1.13;;
50355;SDS011;36264;51.296;-0.602;2022-07-04T07:33:09;2.55;;;1.52;;
50355;SDS011;36264;51.296;-0.602;2022-07-04T07:35:35;2.38;;;1.17;;
50355;SDS011;36264;51.296;-0.602;2022-07-04T07:38:00;2.13;;;1.25;;
50355;SDS011;36264;51.296;-0.602;2022-07-04T07:40:25;0.80;;;0.80;;
50355;SDS011;36264;51.296;-0.602;2022-07-04T07:42:51;2.63;;;1.35;;
50355;SDS011;36264;51.296;-0.602;2022-07-04T07:45:19;1.67;;;1.10;;
50355;SDS011;36264;51.296;-0.602;2022-07-04T07:47:45;2.63;;;1.20;;
50355;SDS011;36264;51.296;-0.602;2022-07-04T07:50:10;2.28;;;1.20;;
50355;SDS011;36264;51.296;-0.602;2022-07-04T07:52:35;2.33;;;1.35;;
50355;SDS011;36264;51.296;-0.602;2022-07-04T07:55:01;3.33;;;1.23;;
50355;SDS011;36264;51.296;-0.602;2022-07-04T07:57:27;2.33;;;1.30;;
50355;SDS011;36264;51.296;-0.602;2022-07-04T07:59:53;1.40;;;1.20;;
50355;SDS011;36264;51.296;-0.602;2022-07-04T08:02:18;1.80;;;1.13;;
50355;SDS011;36264;51.296;-0.602;2022-07-04T08:04:44;1.25;;;1.10;;
50355;SDS011;36264;51.296;-0.602;2022-07-04T08:07:10;1.42;;;1.05;;
50355;SDS011;36264;51.296;-0.602;2022-07-04T08:09:39;1.80;;;1.02;;
50355;SDS011;36264;51.296;-0.602;2022-07-04T08:12:05;1.95;;;1.08;;
50355;SDS011;36264;51.296;-0.602;2022-07-04T08:14:32;1.92;;;1.30;;
50355;SDS011;36264;51.296;-0.602;2022-07-04T08:16:59;1.75;;;0.95;;
50355;SDS011;36264;51.296;-0.602;2022-07-04T08:19:24;2.58;;;1.20;;
50355;SDS011;36264;51.296;-0.602;2022-07-04T08:21:51;3.75;;;1.38;;
50355;SDS011;36264;51.296;-0.602;2022-07-04T08:24:17;2.75;;;1.40;;
50355;SDS011;36264;51.296;-0.602;2022-07-04T08:26:42;2.50;;;1.30;;
50355;SDS011;36264;51.296;-0.602;2022-07-04T08:29:08;1.55;;;1.00;;
50355;SDS011;36264;51.296;-0.602;2022-07-04T08:31:33;1.50;;;1.15;;
50355;SDS011;36264;51.296;-0.602;2022-07-04T08:33:59;1.42;;;1.00;;
50355;SDS011;36264;51.296;-0.602;2022-07-04T08:36:24;2.63;;;1.40;;
50355;SDS011;36264;51.296;-0.602;2022-07-04T08:38:49;1.67;;;1.42;;
50355;SDS011;36264;51.296;-0.602;2022-07-04T08:41:15;1.25;;;1.10;;
50355;SDS011;36264;51.296;-0.602;2022-07-04T08:43:42;2.20;;;1.40;;
50355;SDS011;36264;51.296;-0.602;2022-07-04T08:46:11;1.80;;;1.13;;
50355;SDS011;36264;51.296;-0.602;2022-07-04T08:48:39;2.08;;;1.10;;
50355;SDS011;36264;51.296;-0.602;2022-07-04T08:51:14;1.88;;;1.10;;
50355;SDS011;36264;51.296;-0.602;2022-07-04T08:53:43;1.42;;;1.00;;
50355;SDS011;36264;51.296;-0.602;2022-07-04T08:56:16;1.40;;;1.00;;
50355;SDS011;36264;51.296;-0.602;2022-07-04T08:59:02;4.53;;;1.15;;
50355;SDS011;36264;51.296;-0.602;2022-07-04T09:01:28;1.83;;;1.17;;
50355;SDS011;36264;51.296;-0.602;2022-07-04T09:03:54;2.35;;;1.35;;
50355;SDS011;36264;51.296;-0.602;2022-07-04T09:06:20;1.65;;;1.10;;
50355;SDS011;36264;51.296;-0.602;2022-07-04T09:08:47;3.10;;;1.40;;
50355;SDS011;36264;51.296;-0.602;2022-07-04T09:11:12;1.63;;;1.00;;
50355;SDS011;36264;51.296;-0.602;2022-07-04T09:13:38;1.35;;;1.10;;
50355;SDS011;36264;51.296;-0.602;2022-07-04T09:16:03;2.63;;;1.50;;
50355;SDS011;36264;51.296;-0.602;2022-07-04T09:18:31;1.80;;;1.20;;
50355;SDS011;36264;51.296;-0.602;2022-07-04T09:20:59;2.80;;;1.30;;
50355;SDS011;36264;51.296;-0.602;2022-07-04T09:23:32;1.30;;;1.00;;
50355;SDS011;36264;51.296;-0.602;2022-07-04T09:28:32;1.23;;;1.10;;
50355;SDS011;36264;51.296;-0.602;2022-07-04T09:30:57;2.13;;;1.00;;
50355;SDS011;36264;51.296;-0.602;2022-07-04T09:33:42;3.70;;;1.10;;
50355;SDS011;36264;51.296;-0.602;2022-07-04T09:36:23;1.17;;;1.00;;
50355;SDS011;36264;51.296;-0.602;2022-07-04T09:41:59;1.63;;;1.10;;
50355;SDS011;36264;51.296;-0.602;2022-07-04T09:44:28;1.40;;;1.00;;
50355;SDS011;36264;51.296;-0.602;2022-07-04T09:46:59;2.17;;;1.20;;
50355;SDS011;36264;51.296;-0.602;2022-07-04T09:49:57;1.08;;;0.90;;
50355;SDS011;36264;51.296;-0.602;2022-07-04T09:52:23;3.50;;;1.23;;
50355;SDS011;36264;51.296;-0.602;2022-07-04T09:54:48;1.23;;;0.90;;
50355;SDS011;36264;51.296;-0.602;2022-07-04T09:57:14;2.05;;;1.25;;
50355;SDS011;36264;51.296;-0.602;2022-07-04T09:59:47;2.90;;;1.25;;
50355;SDS011;36264;51.296;-0.602;2022-07-04T10:02:13;2.30;;;1.20;;
50355;SDS011;36264;51.296;-0.602;2022-07-04T10:04:46;2.58;;;1.20;;
50355;SDS011;36264;51.296;-0.602;2022-07-04T10:07:31;2.25;;;1.30;;
50355;SDS011;36264;51.296;-0.602;2022-07-04T10:09:57;3.42;;;1.23;;
50355;SDS011;36264;51.296;-0.602;2022-07-04T10:12:26;1.50;;;1.10;;
50355;SDS011;36264;51.296;-0.602;2022-07-04T10:14:52;1.77;;;1.33;;
50355;SDS011;36264;51.296;-0.602;2022-07-04T10:17:20;1.73;;;1.13;;
50355;SDS011;36264;51.296;-0.602;2022-07-04T10:19:45;1.17;;;1.02;;
50355;SDS011;36264;51.296;-0.602;2022-07-04T10:22:11;1.80;;;1.30;;
50355;SDS011;36264;51.296;-0.602;2022-07-04T10:24:38;1.60;;;1.02;;
50355;SDS011;36264;51.296;-0.602;2022-07-04T10:27:03;1.73;;;1.10;;
50355;SDS011;36264;51.296;-0.602;2022-07-04T10:29:29;1.77;;;1.17;;
50355;SDS011;36264;51.296;-0.602;2022-07-04T10:31:54;1.25;;;1.15;;
50355;SDS011;36264;51.296;-0.602;2022-07-04T10:34:20;1.80;;;1.35;;
50355;SDS011;36264;51.296;-0.602;2022-07-04T10:36:50;2.72;;;1.27;;
50355;SDS011;36264;51.296;-0.602;2022-07-04T10:39:21;1.88;;;1.40;;
50355;SDS011;36264;51.296;-0.602;2022-07-04T10:41:57;1.90;;;1.10;;
50355;SDS011;36264;51.296;-0.602;2022-07-04T10:44:23;4.93;;;1.50;;
50355;SDS011;36264;51.296;-0.602;2022-07-04T10:46:51;2.95;;;1.35;;
50355;SDS011;36264;51.296;-0.602;2022-07-04T10:49:19;1.58;;;1.30;;
50355;SDS011;36264;51.296;-0.602;2022-07-04T10:57:18;2.13;;;1.10;;
50355;SDS011;36264;51.296;-0.602;2022-07-04T10:59:39;1.75;;;1.20;;
50355;SDS011;36264;51.296;-0.602;2022-07-04T11:04:44;1.13;;;0.98;;
50355;SDS011;36264;51.296;-0.602;2022-07-04T11:07:13;2.38;;;1.30;;
50355;SDS011;36264;51.296;-0.602;2022-07-04T11:09:43;2.28;;;1.25;;
50355;SDS011;36264;51.296;-0.602;2022-07-04T11:12:09;1.73;;;1.20;;
50355;SDS011;36264;51.296;-0.602;2022-07-04T11:17:20;1.73;;;1.17;;
50355;SDS011;36264;51.296;-0.602;2022-07-04T11:20:00;2.15;;;1.10;;
50355;SDS011;36264;51.296;-0.602;2022-07-04T11:22:26;2.45;;;1.33;;
50355;SDS011;36264;51.296;-0.602;2022-07-04T11:24:52;2.72;;;1.40;;
50355;SDS011;36264;51.296;-0.602;2022-07-04T11:27:20;2.67;;;1.40;;
50355;SDS011;36264;51.296;-0.602;2022-07-04T11:29:55;1.40;;;1.15;;
50355;SDS011;36264;51.296;-0.602;2022-07-04T11:32:21;1.77;;;1.20;;
50355;SDS011;36264;51.296;-0.602;2022-07-04T11:34:55;5.43;;;1.40;;
50355;SDS011;36264;51.296;-0.602;2022-07-04T11:37:21;1.42;;;1.20;;
50355;SDS011;36264;51.296;-0.602;2022-07-04T11:39:50;1.88;;;1.10;;
50355;SDS011;36264;51.296;-0.602;2022-07-04T11:42:16;1.90;;;1.20;;
50355;SDS011;36264;51.296;-0.602;2022-07-04T11:45:00;3.35;;;1.42;;
50355;SDS011;36264;51.296;-0.602;2022-07-04T11:50:02;1.73;;;1.10;;
50355;SDS011;36264;51.296;-0.602;2022-07-04T11:55:05;1.25;;;1.13;;
50355;SDS011;36264;51.296;-0.602;2022-07-04T11:57:37;1.33;;;1.10;;
50355;SDS011;36264;51.296;-0.602;2022-07-04T12:00:07;2.67;;;1.38;;
50355;SDS011;36264;51.296;-0.602;2022-07-04T12:02:34;2.60;;;1.20;;
50355;SDS011;36264;51.296;-0.602;2022-07-04T12:05:01;2.15;;;1.30;;
50355;SDS011;36264;51.296;-0.602;2022-07-04T12:07:29;2.17;;;1.30;;
50355;SDS011;36264;51.296;-0.602;2022-07-04T12:15:17;2.22;;;1.23;;
50355;SDS011;36264;51.296;-0.602;2022-07-04T12:17:43;2.28;;;1.33;;
50355;SDS011;36264;51.296;-0.602;2022-07-04T12:20:13;2.17;;;1.40;;
50355;SDS011;36264;51.296;-0.602;2022-07-04T12:22:41;2.30;;;1.33;;
50355;SDS011;36264;51.296;-0.602;2022-07-04T12:25:18;1.95;;;1.30;;
50355;SDS011;36264;51.296;-0.602;2022-07-04T12:27:57;2.22;;;1.35;;
50355;SDS011;36264;51.296;-0.602;2022-07-04T12:30:24;2.72;;;1.50;;
50355;SDS011;36264;51.296;-0.602;2022-07-04T12:32:51;2.33;;;1.52;;
50355;SDS011;36264;51.296;-0.602;2022-07-04T12:36:22;2.95;;;1.50;;
50355;SDS011;36264;51.296;-0.602;2022-07-04T12:40:53;3.35;;;1.30;;
50355;SDS011;36264;51.296;-0.602;2022-07-04T12:43:19;2.97;;;1.50;;
50355;SDS011;36264;51.296;-0.602;2022-07-04T12:45:52;2.00;;;1.52;;
50355;SDS011;36264;51.296;-0.602;2022-07-04T12:48:21;2.22;;;1.48;;
50355;SDS011;36264;51.296;-0.602;2022-07-04T12:50:49;2.90;;;1.58;;
50355;SDS011;36264;51.296;-0.602;2022-07-04T12:53:15;2.53;;;1.60;;
50355;SDS011;36264;51.296;-0.602;2022-07-04T12:55:42;3.45;;;1.48;;
50355;SDS011;36264;51.296;-0.602;2022-07-04T12:58:08;4.30;;;1.70;;
50355;SDS011;36264;51.296;-0.602;2022-07-04T13:00:34;3.05;;;1.55;;
50355;SDS011;36264;51.296;-0.602;2022-07-04T13:02:59;4.40;;;1.58;;
50355;SDS011;36264;51.296;-0.602;2022-07-04T13:05:25;4.72;;;1.60;;
50355;SDS011;36264;51.296;-0.602;2022-07-04T13:07:50;3.58;;;1.50;;
50355;SDS011;36264;51.296;-0.602;2022-07-04T13:10:16;3.97;;;1.88;;
50355;SDS011;36264;51.296;-0.602;2022-07-04T13:12:41;1.35;;;1.20;;
50355;SDS011;36264;51.296;-0.602;2022-07-04T13:15:07;2.58;;;1.45;;
50355;SDS011;36264;51.296;-0.602;2022-07-04T13:17:36;3.08;;;1.65;;
50355;SDS011;36264;51.296;-0.602;2022-07-04T13:20:02;2.72;;;1.48;;
50355;SDS011;36264;51.296;-0.602;2022-07-04T13:22:28;2.03;;;1.35;;
50355;SDS011;36264;51.296;-0.602;2022-07-04T13:24:54;2.70;;;1.40;;
50355;SDS011;36264;51.296;-0.602;2022-07-04T13:27:19;3.55;;;1.60;;
50355;SDS011;36264;51.296;-0.602;2022-07-04T13:29:45;2.63;;;1.50;;
50355;SDS011;36264;51.296;-0.602;2022-07-04T13:32:11;2.88;;;1.70;;
50355;SDS011;36264;51.296;-0.602;2022-07-04T13:34:36;3.65;;;1.60;;
50355;SDS011;36264;51.296;-0.602;2022-07-04T13:37:02;2.80;;;1.50;;
50355;SDS011;36264;51.296;-0.602;2022-07-04T13:39:28;2.72;;;1.50;;
50355;SDS011;36264;51.296;-0.602;2022-07-04T13:41:54;3.10;;;1.65;;
50355;SDS011;36264;51.296;-0.602;2022-07-04T13:44:19;3.15;;;1.60;;
50355;SDS011;36264;51.296;-0.602;2022-07-04T13:46:45;2.40;;;1.40;;
50355;SDS011;36264;51.296;-0.602;2022-07-04T13:49:10;2.13;;;1.35;;
50355;SDS011;36264;51.296;-0.602;2022-07-04T13:51:36;2.28;;;1.42;;
50355;SDS011;36264;51.296;-0.602;2022-07-04T13:54:03;2.45;;;1.30;;
50355;SDS011;36264;51.296;-0.602;2022-07-04T13:56:28;2.38;;;1.40;;
50355;SDS011;36264;51.296;-0.602;2022-07-04T13:58:54;4.57;;;1.60;;
50355;SDS011;36264;51.296;-0.602;2022-07-04T14:01:19;3.17;;;1.50;;
50355;SDS011;36264;51.296;-0.602;2022-07-04T14:03:45;2.95;;;1.80;;
50355;SDS011;36264;51.296;-0.602;2022-07-04T14:06:11;3.03;;;1.50;;
50355;SDS011;36264;51.296;-0.602;2022-07-04T14:08:37;5.38;;;1.55;;
50355;SDS011;36264;51.296;-0.602;2022-07-04T14:11:03;3.20;;;1.50;;
50355;SDS011;36264;51.296;-0.602;2022-07-04T14:13:29;2.67;;;1.48;;
50355;SDS011;36264;51.296;-0.602;2022-07-04T14:15:54;2.65;;;1.50;;
50355;SDS011;36264;51.296;-0.602;2022-07-04T14:18:20;3.03;;;1.45;;
50355;SDS011;36264;51.296;-0.602;2022-07-04T14:20:45;2.92;;;1.50;;
50355;SDS011;36264;51.296;-0.602;2022-07-04T14:23:11;2.35;;;1.50;;
50355;SDS011;36264;51.296;-0.602;2022-07-04T14:25:38;4.05;;;1.70;;
50355;SDS011;36264;51.296;-0.602;2022-07-04T14:28:03;1.67;;;1.30;;
50355;SDS011;36264;51.296;-0.602;2022-07-04T14:30:29;5.50;;;1.50;;
50355;SDS011;36264;51.296;-0.602;2022-07-04T14:32:54;2.22;;;1.38;;
50355;SDS011;36264;51.296;-0.602;2022-07-04T14:35:20;1.88;;;1.30;;
50355;SDS011;36264;51.296;-0.602;2022-07-04T14:37:45;4.07;;;1.88;;
50355;SDS011;36264;51.296;-0.602;2022-07-04T14:40:11;2.25;;;1.40;;
50355;SDS011;36264;51.296;-0.602;2022-07-04T14:42:37;2.75;;;1.50;;
50355;SDS011;36264;51.296;-0.602;2022-07-04T14:45:02;2.95;;;1.60;;
50355;SDS011;36264;51.296;-0.602;2022-07-04T14:47:28;4.05;;;1.65;;
50355;SDS011;36264;51.296;-0.602;2022-07-04T14:49:56;2.80;;;1.52;;
50355;SDS011;36264;51.296;-0.602;2022-07-04T14:52:22;1.63;;;1.30;;
50355;SDS011;36264;51.296;-0.602;2022-07-04T14:54:47;2.60;;;1.40;;
50355;SDS011;36264;51.296;-0.602;2022-07-04T14:57:13;1.52;;;1.30;;
50355;SDS011;36264;51.296;-0.602;2022-07-04T14:59:39;2.70;;;1.40;;
50355;SDS011;36264;51.296;-0.602;2022-07-04T15:02:04;2.13;;;1.40;;